createdAt,value
2022-12-03T00:00:32.792Z,81.11
2022-12-03T00:03:19.931Z,81.51
2022-12-03T00:05:49.460Z,81.37
2022-12-03T00:08:17.775Z,81.42
2022-12-03T00:10:46.079Z,81.28
2022-12-03T00:13:14.309Z,81.14
2022-12-03T00:15:42.477Z,81.33
2022-12-03T00:18:10.946Z,81.56
2022-12-03T00:20:39.149Z,81.29
2022-12-03T00:23:07.415Z,81.08
2022-12-03T00:25:35.897Z,81.51
2022-12-03T00:28:04.189Z,81.57
2022-12-03T00:30:33.621Z,81.70
2022-12-03T00:33:01.973Z,81.68
2022-12-03T00:35:30.564Z,81.88
2022-12-03T00:37:58.638Z,81.67
2022-12-03T00:40:26.916Z,81.45
2022-12-03T00:42:55.072Z,82.15
2022-12-03T00:45:23.551Z,81.68
2022-12-03T00:47:51.815Z,81.55
2022-12-03T00:50:20.001Z,81.95
2022-12-03T00:52:49.868Z,82.06
2022-12-03T00:55:18.309Z,81.77
2022-12-03T00:57:47.171Z,81.87
2022-12-03T01:00:15.867Z,82.28
2022-12-03T01:02:44.074Z,82.43
2022-12-03T01:05:12.425Z,82.40
2022-12-03T01:07:40.915Z,82.05
2022-12-03T01:10:09.452Z,81.77
2022-12-03T01:12:37.889Z,82.39
2022-12-03T01:15:07.403Z,82.13
2022-12-03T01:17:35.749Z,82.39
2022-12-03T01:20:09.801Z,82.34
2022-12-03T01:22:38.274Z,82.05
2022-12-03T01:25:07.520Z,82.08
2022-12-03T01:27:35.664Z,82.09
2022-12-03T01:30:05.389Z,81.85
2022-12-03T01:32:33.973Z,81.98
2022-12-03T01:35:02.152Z,81.94
2022-12-03T01:37:30.362Z,82.02
2022-12-03T01:39:58.926Z,82.18
2022-12-03T01:42:31.153Z,82.23
2022-12-03T01:45:01.019Z,82.14
2022-12-03T01:47:32.354Z,82.61
2022-12-03T01:50:05.803Z,82.40
2022-12-03T01:52:38.305Z,82.07
2022-12-03T01:55:16.366Z,82.92
2022-12-03T01:57:51.697Z,82.52
2022-12-03T02:00:23.790Z,82.55
2022-12-03T02:02:57.980Z,82.26
2022-12-03T02:05:29.041Z,81.66
2022-12-03T02:07:57.914Z,82.74
2022-12-03T02:10:36.260Z,82.45
2022-12-03T02:13:08.333Z,82.45
2022-12-03T02:15:38.506Z,83.03
2022-12-03T02:18:09.060Z,82.23
2022-12-03T02:20:45.735Z,82.52
2022-12-03T02:23:26.226Z,82.81
2022-12-03T02:25:54.531Z,82.38
2022-12-03T02:28:22.721Z,82.65
2022-12-03T02:30:51.329Z,82.71
2022-12-03T02:33:19.637Z,82.66
2022-12-03T02:35:48.646Z,82.89
2022-12-03T02:38:28.161Z,82.82
2022-12-03T02:41:01.204Z,82.69
2022-12-03T02:43:29.549Z,82.86
2022-12-03T02:46:00.427Z,83.29
2022-12-03T02:48:46.490Z,82.65
2022-12-03T02:51:15.121Z,82.98
2022-12-03T02:53:46.153Z,82.70
2022-12-03T02:56:19.409Z,83.14
2022-12-03T02:58:50.193Z,82.71
2022-12-03T03:01:18.698Z,82.82
2022-12-03T03:03:48.875Z,83.20
2022-12-03T03:06:19.571Z,83.31
2022-12-03T03:08:49.031Z,83.54
2022-12-03T03:11:17.404Z,82.81
2022-12-03T03:13:46.119Z,82.77
2022-12-03T03:16:14.773Z,83.27
2022-12-03T03:18:42.972Z,82.81
2022-12-03T03:21:12.709Z,83.08
2022-12-03T03:23:40.824Z,83.01
2022-12-03T03:26:12.400Z,83.07
2022-12-03T03:28:44.964Z,83.56
2022-12-03T03:31:15.404Z,83.81
2022-12-03T03:33:45.738Z,83.81
2022-12-03T03:36:15.413Z,83.96
2022-12-03T03:38:44.273Z,83.72
2022-12-03T03:41:13.566Z,83.69
2022-12-03T03:43:44.387Z,84.25
2022-12-03T03:46:13.833Z,84.36
2022-12-03T03:48:43.944Z,83.70
2022-12-03T03:51:13.471Z,84.38
2022-12-03T03:53:45.090Z,84.77
2022-12-03T03:56:14.800Z,84.56
2022-12-03T03:58:43.345Z,84.79
2022-12-03T04:01:13.418Z,84.92
2022-12-03T04:03:41.824Z,84.66
2022-12-03T04:06:10.520Z,84.59
2022-12-03T04:08:41.076Z,84.51
2022-12-03T04:11:28.510Z,84.91
2022-12-03T04:13:56.641Z,84.79
2022-12-03T04:16:24.937Z,84.81
2022-12-03T04:18:53.269Z,84.64
2022-12-03T04:21:42.199Z,84.99
2022-12-03T04:24:11.578Z,84.48
2022-12-03T04:26:58.561Z,84.40
2022-12-03T04:29:26.678Z,84.73
2022-12-03T04:32:13.698Z,84.78
2022-12-03T04:35:00.433Z,84.37
2022-12-03T04:37:28.629Z,84.70
2022-12-03T04:39:56.812Z,84.69
2022-12-03T04:42:25.449Z,84.63
2022-12-03T04:44:54.116Z,84.51
2022-12-03T04:47:22.719Z,84.33
2022-12-03T04:49:51.738Z,84.11
2022-12-03T04:52:21.097Z,84.51
2022-12-03T04:54:49.772Z,84.63
2022-12-03T04:57:18.465Z,84.51
2022-12-03T04:59:46.735Z,84.35
2022-12-03T05:02:15.366Z,84.88
2022-12-03T05:04:44.756Z,85.15
2022-12-03T05:07:13.426Z,84.68
2022-12-03T05:09:41.578Z,84.73
2022-12-03T05:12:09.906Z,85.27
2022-12-03T05:14:38.319Z,84.99
2022-12-03T05:17:06.560Z,84.97
2022-12-03T05:19:53.498Z,84.83
2022-12-03T05:22:21.852Z,84.93
2022-12-03T05:24:50.235Z,85.42
2022-12-03T05:27:23.407Z,85.70
2022-12-03T05:29:52.431Z,84.80
2022-12-03T05:32:21.004Z,84.85
2022-12-03T05:34:49.358Z,84.57
2022-12-03T05:37:17.649Z,85.07
2022-12-03T05:39:45.767Z,84.97
2022-12-03T05:42:32.742Z,84.63
2022-12-03T05:45:01.215Z,84.70
2022-12-03T05:47:29.479Z,85.16
2022-12-03T05:49:57.682Z,85.47
2022-12-03T05:52:26.302Z,85.06
2022-12-03T05:54:55.979Z,84.84
2022-12-03T05:57:24.526Z,84.78
2022-12-03T05:59:52.759Z,85.36
2022-12-03T06:02:21.351Z,84.99
2022-12-03T06:04:49.986Z,85.28
2022-12-03T06:07:18.309Z,84.95
2022-12-03T06:09:46.496Z,84.97
2022-12-03T06:12:15.000Z,84.89
2022-12-03T06:14:43.212Z,85.74
2022-12-03T06:17:11.710Z,85.24
2022-12-03T06:19:40.004Z,85.01
2022-12-03T06:22:08.216Z,85.70
2022-12-03T06:24:36.422Z,85.39
2022-12-03T06:27:05.494Z,84.98
2022-12-03T06:29:33.830Z,85.46
2022-12-03T06:32:02.696Z,85.25
2022-12-03T06:34:31.330Z,85.41
2022-12-03T06:36:59.604Z,85.21
2022-12-03T06:39:27.788Z,85.37
2022-12-03T06:41:56.155Z,85.12
2022-12-03T06:44:24.364Z,85.63
2022-12-03T06:46:52.871Z,85.42
2022-12-03T06:49:21.331Z,85.91
2022-12-03T06:51:49.507Z,85.72
2022-12-03T06:54:17.704Z,85.34
2022-12-03T06:56:47.275Z,85.57
2022-12-03T06:59:15.545Z,85.56
2022-12-03T07:01:44.503Z,86.30
2022-12-03T07:07:00.560Z,85.98
2022-12-03T07:09:29.355Z,85.58
2022-12-03T07:11:57.775Z,86.12
2022-12-03T07:14:26.119Z,85.95
2022-12-03T07:16:54.440Z,86.08
2022-12-03T07:19:25.252Z,85.82
2022-12-03T07:21:57.890Z,85.85
2022-12-03T07:24:26.609Z,86.11
2022-12-03T07:26:55.072Z,85.82
2022-12-03T07:29:24.060Z,85.84
2022-12-03T07:31:52.478Z,86.04
2022-12-03T07:34:20.761Z,86.35
2022-12-03T07:36:49.269Z,85.96
2022-12-03T07:39:17.559Z,85.89
2022-12-03T07:41:46.040Z,85.65
2022-12-03T07:44:15.017Z,86.00
2022-12-03T07:46:43.469Z,85.86
2022-12-03T07:49:12.494Z,85.81
2022-12-03T07:51:41.083Z,85.78
2022-12-03T07:54:09.529Z,85.65
2022-12-03T07:56:37.953Z,85.46
2022-12-03T07:59:06.504Z,85.64
2022-12-03T08:01:34.935Z,85.57
2022-12-03T08:04:03.558Z,85.65
2022-12-03T08:06:31.708Z,85.96
2022-12-03T08:09:00.127Z,85.89
2022-12-03T08:11:29.559Z,85.92
2022-12-03T08:13:58.368Z,85.82
2022-12-03T08:16:26.620Z,85.65
2022-12-03T08:18:57.674Z,85.61
2022-12-03T08:21:35.231Z,85.64
2022-12-03T08:24:20.042Z,85.72
2022-12-03T08:26:49.703Z,85.33
2022-12-03T08:29:19.980Z,85.56
2022-12-03T08:31:57.310Z,85.27
2022-12-03T08:34:36.043Z,85.63
2022-12-03T08:37:16.240Z,85.35
2022-12-03T08:39:48.467Z,85.16
2022-12-03T08:42:41.693Z,85.13
2022-12-03T08:45:40.046Z,85.19
2022-12-03T08:48:35.097Z,85.02
2022-12-03T08:51:19.251Z,84.96
2022-12-03T08:53:58.120Z,84.95
2022-12-03T08:56:33.399Z,84.69
2022-12-03T08:59:26.900Z,84.98
2022-12-03T09:01:56.502Z,85.03
2022-12-03T09:04:41.781Z,84.76
2022-12-03T09:07:10.208Z,84.61
2022-12-03T09:09:39.115Z,84.83
2022-12-03T09:12:07.709Z,84.97
2022-12-03T09:14:36.129Z,84.90
2022-12-03T09:17:05.056Z,85.05
2022-12-03T09:19:33.614Z,85.45
2022-12-03T09:22:02.271Z,85.46
2022-12-03T09:24:30.881Z,85.08
2022-12-03T09:26:59.307Z,85.27
2022-12-03T09:29:27.990Z,85.31
2022-12-03T09:31:56.543Z,85.38
2022-12-03T09:34:25.523Z,85.38
2022-12-03T09:36:54.200Z,85.35
2022-12-03T09:39:22.717Z,85.17
2022-12-03T09:41:51.186Z,85.24
2022-12-03T09:44:19.874Z,85.27
2022-12-03T09:46:51.558Z,85.22
2022-12-03T09:49:20.297Z,85.34
2022-12-03T09:51:49.123Z,85.23
2022-12-03T09:54:26.746Z,85.15
2022-12-03T09:56:57.778Z,84.99
2022-12-03T09:59:34.461Z,84.95
2022-12-03T10:02:03.867Z,84.84
2022-12-03T10:04:32.645Z,84.72
2022-12-03T10:07:01.586Z,84.89
2022-12-03T10:09:30.806Z,84.85
2022-12-03T10:12:00.141Z,84.76
2022-12-03T10:14:29.200Z,84.87
2022-12-03T10:16:59.823Z,84.90
2022-12-03T10:19:35.964Z,84.95
2022-12-03T10:22:04.523Z,85.02
2022-12-03T10:24:35.436Z,84.91
2022-12-03T10:27:20.263Z,85.01
2022-12-03T10:29:57.541Z,84.89
2022-12-03T10:32:38.586Z,84.66
2022-12-03T10:35:16.861Z,84.93
2022-12-03T10:38:07.833Z,85.09
2022-12-03T10:40:40.713Z,84.90
2022-12-03T10:43:19.901Z,85.17
2022-12-03T10:46:11.553Z,85.27
2022-12-03T10:48:40.770Z,84.85
2022-12-03T10:51:23.000Z,84.93
2022-12-03T10:53:51.515Z,84.90
2022-12-03T10:56:27.713Z,85.09
2022-12-03T10:58:56.661Z,85.14
2022-12-03T11:01:27.335Z,85.08
2022-12-03T11:04:04.404Z,85.26
2022-12-03T11:06:33.292Z,85.49
2022-12-03T11:09:08.760Z,85.57
2022-12-03T11:11:37.835Z,85.55
2022-12-03T11:14:06.323Z,85.38
2022-12-03T11:16:41.009Z,85.48
2022-12-03T11:19:12.437Z,85.85
2022-12-03T11:22:10.488Z,85.54
2022-12-03T11:24:40.819Z,85.30
2022-12-03T11:27:09.624Z,85.53
2022-12-03T11:29:49.857Z,85.66
2022-12-03T11:32:40.712Z,85.53
2022-12-03T11:35:15.772Z,85.56
2022-12-03T11:37:44.275Z,85.59
2022-12-03T11:40:18.724Z,85.39
2022-12-03T11:42:48.698Z,85.02
2022-12-03T11:45:27.572Z,85.25
2022-12-03T11:47:58.949Z,85.17
2022-12-03T11:50:49.734Z,85.51
2022-12-03T11:53:26.055Z,85.32
2022-12-03T11:56:09.375Z,85.25
2022-12-03T11:58:38.985Z,85.37
2022-12-03T12:01:09.071Z,85.55
2022-12-03T12:03:46.907Z,85.81
2022-12-03T12:06:20.689Z,85.44
2022-12-03T12:08:52.678Z,85.53
2022-12-03T12:11:21.212Z,85.47
2022-12-03T12:13:50.940Z,85.42
2022-12-03T12:16:55.833Z,85.42
2022-12-03T12:19:35.731Z,85.58
2022-12-03T12:22:24.391Z,85.37
2022-12-03T12:25:04.743Z,85.59
2022-12-03T12:27:39.712Z,85.59
2022-12-03T12:30:14.031Z,85.49
2022-12-03T12:33:01.372Z,85.60
2022-12-03T12:35:33.166Z,85.47
2022-12-03T12:38:11.159Z,85.48
2022-12-03T12:40:43.272Z,85.59
2022-12-03T12:43:15.218Z,85.79
2022-12-03T12:45:45.046Z,85.52
2022-12-03T12:48:13.316Z,85.66
2022-12-03T12:50:44.061Z,85.59
2022-12-03T12:53:44.698Z,85.77
2022-12-03T12:56:32.075Z,85.74
2022-12-03T12:59:20.866Z,85.63
2022-12-03T13:01:50.335Z,85.49
2022-12-03T13:04:23.906Z,85.63
2022-12-03T13:06:54.295Z,85.62
2022-12-03T13:09:25.575Z,85.57
2022-12-03T13:11:57.404Z,85.69
2022-12-03T13:14:35.377Z,85.76
2022-12-03T13:17:24.673Z,85.92
2022-12-03T13:20:03.680Z,86.08
2022-12-03T13:22:35.419Z,85.99
2022-12-03T13:28:31.335Z,85.83
2022-12-03T13:31:15.422Z,85.89
2022-12-03T13:33:44.051Z,86.07
2022-12-03T13:36:16.395Z,86.12
2022-12-03T13:38:45.316Z,86.08
2022-12-03T13:41:37.077Z,86.06
2022-12-03T13:44:18.406Z,85.89
2022-12-03T13:46:47.260Z,86.03
2022-12-03T13:49:23.527Z,86.03
2022-12-03T13:51:52.123Z,85.95
2022-12-03T13:54:27.991Z,85.57
2022-12-03T13:56:56.361Z,86.15
2022-12-03T13:59:26.314Z,85.87
2022-12-03T14:01:55.054Z,85.79
2022-12-03T14:06:38.764Z,85.98
2022-12-03T14:09:07.447Z,85.98
2022-12-03T14:11:54.671Z,85.94
2022-12-03T14:14:23.565Z,86.09
2022-12-03T14:16:58.196Z,86.15
2022-12-03T14:19:28.327Z,86.29
2022-12-03T14:21:57.098Z,86.01
2022-12-03T14:24:25.672Z,86.14
2022-12-03T14:26:54.299Z,86.06
2022-12-03T14:29:22.745Z,86.12
2022-12-03T14:31:51.283Z,86.31
2022-12-03T14:34:19.815Z,86.43
2022-12-03T14:36:48.225Z,86.18
2022-12-03T14:39:16.637Z,86.06
2022-12-03T14:42:03.814Z,86.01
2022-12-03T14:44:32.264Z,86.18
2022-12-03T14:47:00.721Z,86.03
2022-12-03T14:49:29.328Z,85.81
2022-12-03T14:51:57.828Z,85.71
2022-12-03T14:54:26.357Z,85.79
2022-12-03T14:56:54.896Z,85.63
2022-12-03T14:59:27.587Z,85.91
2022-12-03T15:01:56.908Z,85.85
2022-12-03T15:04:25.548Z,85.70
2022-12-03T15:06:53.956Z,85.91
2022-12-03T15:09:22.428Z,85.78
2022-12-03T15:11:50.742Z,85.83
2022-12-03T15:14:19.196Z,85.93
2022-12-03T15:16:47.655Z,85.66
2022-12-03T15:19:16.304Z,85.79
2022-12-03T15:21:44.744Z,86.01
2022-12-03T15:24:13.321Z,85.78
2022-12-03T15:26:41.692Z,85.80
2022-12-03T15:29:10.238Z,85.62
2022-12-03T15:31:38.632Z,85.62
2022-12-03T15:34:07.069Z,86.00
2022-12-03T15:36:35.558Z,85.72
2022-12-03T15:39:04.198Z,85.67
2022-12-03T15:41:32.876Z,85.69
2022-12-03T15:44:02.331Z,85.48
2022-12-03T15:46:31.682Z,85.74
2022-12-03T15:49:00.373Z,85.62
2022-12-03T15:51:28.856Z,85.81
2022-12-03T15:53:57.321Z,85.64
2022-12-03T15:56:25.727Z,85.84
2022-12-03T15:58:54.440Z,85.66
2022-12-03T16:01:22.924Z,85.51
2022-12-03T16:03:51.369Z,85.64
2022-12-03T16:06:19.838Z,85.53
2022-12-03T16:08:48.490Z,85.62
2022-12-03T16:11:16.861Z,85.66
2022-12-03T16:13:45.285Z,85.98
2022-12-03T16:16:13.751Z,85.71
2022-12-03T16:18:44.103Z,85.56
2022-12-03T16:21:12.421Z,85.55
2022-12-03T16:23:41.001Z,85.63
2022-12-03T16:26:09.386Z,85.78
2022-12-03T16:28:37.677Z,85.86
2022-12-03T16:31:06.253Z,85.91
2022-12-03T16:33:34.845Z,85.83
2022-12-03T16:36:03.889Z,85.86
2022-12-03T16:38:33.845Z,85.96
2022-12-03T16:41:02.517Z,85.74
2022-12-03T16:43:30.910Z,85.59
2022-12-03T16:46:03.293Z,85.86
2022-12-03T16:48:31.769Z,85.75
2022-12-03T16:51:00.141Z,85.93
2022-12-03T16:53:28.444Z,85.95
2022-12-03T16:55:56.908Z,85.77
2022-12-03T16:58:25.430Z,85.63
2022-12-03T17:00:54.357Z,85.62
2022-12-03T17:03:23.206Z,85.89
2022-12-03T17:05:51.554Z,85.82
2022-12-03T17:08:20.395Z,85.90
2022-12-03T17:10:48.747Z,86.03
2022-12-03T17:13:17.110Z,85.93
2022-12-03T17:15:45.429Z,85.99
2022-12-03T17:18:13.793Z,86.19
2022-12-03T17:20:42.548Z,86.24
2022-12-03T17:23:12.018Z,86.09
2022-12-03T17:25:40.304Z,86.06
2022-12-03T17:28:08.889Z,86.00
2022-12-03T17:30:38.784Z,86.09
2022-12-03T17:33:07.144Z,86.03
2022-12-03T17:35:35.472Z,86.06
2022-12-03T17:38:03.847Z,85.90
2022-12-03T17:40:32.252Z,85.96
2022-12-03T17:43:00.627Z,86.00
2022-12-03T17:45:29.105Z,86.05
2022-12-03T17:47:57.472Z,86.14
2022-12-03T17:50:26.300Z,86.04
2022-12-03T17:52:54.612Z,86.08
2022-12-03T17:55:32.094Z,86.06
2022-12-03T17:58:05.291Z,85.99
2022-12-03T18:00:34.255Z,85.88
2022-12-03T18:03:02.613Z,85.93
2022-12-03T18:05:31.066Z,85.91
2022-12-03T18:07:59.593Z,86.02
2022-12-03T18:10:28.106Z,85.95
2022-12-03T18:13:01.421Z,86.09
2022-12-03T18:15:31.098Z,86.09
2022-12-03T18:17:59.927Z,86.13
2022-12-03T18:20:28.540Z,86.04
2022-12-03T18:22:59.466Z,86.15
2022-12-03T18:25:29.307Z,85.96
2022-12-03T18:27:57.924Z,86.13
2022-12-03T18:30:26.530Z,86.04
2022-12-03T18:32:55.070Z,86.09
2022-12-03T18:35:23.822Z,86.07
2022-12-03T18:37:52.146Z,86.07
2022-12-03T18:40:23.707Z,86.05
2022-12-03T18:42:52.330Z,86.07
2022-12-03T18:45:20.766Z,86.10
2022-12-03T18:47:49.751Z,86.05
2022-12-03T18:50:18.187Z,86.24
2022-12-03T18:52:46.607Z,86.16
2022-12-03T18:55:18.860Z,86.27
2022-12-03T18:57:47.218Z,86.35
2022-12-03T19:00:16.216Z,86.15
2022-12-03T19:03:02.622Z,86.20
2022-12-03T19:05:34.551Z,86.33
2022-12-03T19:08:03.937Z,86.25
2022-12-03T19:10:32.611Z,86.47
2022-12-03T19:13:00.994Z,86.53
2022-12-03T19:15:29.337Z,86.54
2022-12-03T19:17:57.752Z,86.63
2022-12-03T19:20:26.260Z,86.58
2022-12-03T19:22:54.633Z,86.73
2022-12-03T19:25:23.331Z,86.67
2022-12-03T19:27:55.303Z,86.56
2022-12-03T19:30:23.963Z,86.71
2022-12-03T19:32:52.591Z,86.71
2022-12-03T19:35:21.626Z,86.69
2022-12-03T19:37:50.304Z,86.79
2022-12-03T19:40:18.778Z,86.96
2022-12-03T19:42:47.308Z,86.84
2022-12-03T19:45:15.691Z,86.83
2022-12-03T19:47:43.966Z,87.12
2022-12-03T19:50:19.416Z,87.07
2022-12-03T19:52:51.424Z,87.30
2022-12-03T19:55:20.172Z,87.00
2022-12-03T19:57:48.920Z,86.95
2022-12-03T20:00:17.878Z,87.00
2022-12-03T20:02:49.229Z,87.06
2022-12-03T20:05:17.634Z,87.09
2022-12-03T20:07:45.966Z,87.32
2022-12-03T20:10:14.649Z,87.35
2022-12-03T20:12:42.982Z,87.42
2022-12-03T20:15:12.367Z,87.53
2022-12-03T20:17:40.611Z,87.36
2022-12-03T20:20:12.394Z,87.65
2022-12-03T20:22:41.109Z,87.79
2022-12-03T20:25:10.277Z,87.81
2022-12-03T20:27:38.538Z,87.48
2022-12-03T20:30:07.462Z,87.86
2022-12-03T20:32:40.556Z,87.67
2022-12-03T20:35:12.310Z,87.82
2022-12-03T20:37:40.629Z,88.01
2022-12-03T20:40:09.631Z,87.87
2022-12-03T20:42:37.969Z,87.90
2022-12-03T20:45:06.787Z,88.02
2022-12-03T20:47:35.015Z,88.18
2022-12-03T20:50:03.542Z,88.17
2022-12-03T20:52:32.052Z,88.07
2022-12-03T20:55:00.869Z,88.38
2022-12-03T20:57:29.320Z,88.31
2022-12-03T20:59:58.849Z,88.09
2022-12-03T21:02:27.369Z,88.16
2022-12-03T21:04:56.094Z,88.23
2022-12-03T21:07:24.455Z,88.54
2022-12-03T21:09:52.974Z,88.25
2022-12-03T21:12:21.572Z,88.37
2022-12-03T21:14:49.961Z,88.44
2022-12-03T21:17:18.551Z,88.35
2022-12-03T21:19:47.476Z,88.41
2022-12-03T21:22:15.665Z,88.47
2022-12-03T21:24:44.175Z,88.24
2022-12-03T21:27:17.096Z,88.41
2022-12-03T21:29:49.942Z,88.25
2022-12-03T21:32:19.151Z,88.80
2022-12-03T21:34:47.893Z,88.66
2022-12-03T21:37:16.143Z,89.01
2022-12-03T21:39:44.364Z,88.73
2022-12-03T21:42:34.686Z,88.98
2022-12-03T21:45:01.132Z,88.63
2022-12-03T21:47:35.089Z,88.77
2022-12-03T21:50:07.869Z,88.90
2022-12-03T21:52:36.216Z,89.03
2022-12-03T21:55:05.139Z,88.84
2022-12-03T21:57:36.694Z,89.32
2022-12-03T22:00:07.931Z,89.07
2022-12-03T22:02:40.251Z,88.76
2022-12-03T22:05:10.522Z,88.97
2022-12-03T22:07:39.666Z,89.12
2022-12-03T22:10:10.120Z,89.54
2022-12-03T22:12:40.890Z,89.41
2022-12-03T22:15:16.543Z,88.88
2022-12-03T22:17:47.688Z,89.44
2022-12-03T22:20:15.986Z,89.45
2022-12-03T22:22:44.186Z,88.89
2022-12-03T22:25:13.516Z,88.90
2022-12-03T22:27:41.993Z,89.05
2022-12-03T22:30:10.398Z,89.15
2022-12-03T22:32:38.609Z,89.15
2022-12-03T22:35:07.146Z,89.17
2022-12-03T22:37:35.365Z,89.24
2022-12-03T22:40:05.044Z,89.40
2022-12-03T22:42:33.298Z,89.38
2022-12-03T22:45:01.550Z,89.72
2022-12-03T22:47:29.838Z,88.77
2022-12-03T22:49:58.138Z,89.24
2022-12-03T22:52:26.405Z,89.48
2022-12-03T22:54:54.633Z,89.79
2022-12-03T22:57:22.837Z,89.25
2022-12-03T22:59:51.046Z,89.67
2022-12-03T23:02:19.464Z,89.53
2022-12-03T23:04:47.772Z,89.64
2022-12-03T23:07:16.028Z,89.48
2022-12-03T23:09:44.172Z,89.55
2022-12-03T23:12:14.729Z,89.44
2022-12-03T23:14:42.914Z,89.30
2022-12-03T23:17:11.144Z,89.73
2022-12-03T23:19:39.364Z,89.56
2022-12-03T23:22:08.138Z,89.70
2022-12-03T23:24:36.946Z,89.66
2022-12-03T23:27:05.187Z,89.74
2022-12-03T23:29:35.113Z,89.21
2022-12-03T23:32:03.467Z,89.47
2022-12-03T23:34:31.701Z,89.82
2022-12-03T23:37:00.059Z,89.93
2022-12-03T23:39:28.263Z,90.03
2022-12-03T23:41:56.914Z,89.72
2022-12-03T23:44:27.856Z,89.74
2022-12-03T23:46:56.109Z,89.26
2022-12-03T23:49:24.361Z,89.82
2022-12-03T23:51:52.610Z,90.49
2022-12-03T23:54:20.769Z,89.93
2022-12-03T23:56:49.113Z,89.76
2022-12-03T23:59:17.394Z,89.85
